Time;durP1;ratioP1;P1;durP2;ratioP2;P2;SDS_P1;SDS_P2;PMS_P1;PMS_P2;Temp;Humidity;BMP_temperature;BMP_pressure;BME280_temperature;BME280_humidity;BME280_pressure;Samples;Min_cycle;Max_cycle;Signal;HPM_P1;HPM_P2
2021/03/04 00:00:07;;;;;;;20.85;11.57;;;7.40;94.30;;;;;;4946818;29;20114;-87
2021/03/04 00:02:36;;;;;;;24.90;11.55;;;7.30;95.40;;;;;;4955247;28;20457;-87
2021/03/04 00:05:08;;;;;;;28.30;11.55;;;7.30;95.30;;;;;;4946317;29;20078;-87
2021/03/04 00:07:39;;;;;;;21.85;12.40;;;7.20;97.00;;;;;;4945602;29;20465;-87
2021/03/04 00:10:09;;;;;;;25.60;11.68;;;7.20;94.70;;;;;;4946075;29;20161;-87
2021/03/04 00:12:39;;;;;;;21.40;11.30;;;7.20;94.90;;;;;;4912799;29;20160;-87
2021/03/04 00:15:09;;;;;;;33.58;11.20;;;7.20;94.50;;;;;;4945742;29;20465;-84
2021/03/04 00:17:43;;;;;;;24.02;11.00;;;7.30;93.80;;;;;;4945551;29;20051;-88
2021/03/04 00:20:13;;;;;;;21.40;11.05;;;7.30;92.70;;;;;;4942469;29;20178;-88
2021/03/04 00:22:42;;;;;;;24.30;11.00;;;7.30;93.50;;;;;;4944404;29;20048;-87
2021/03/04 00:25:10;;;;;;;21.38;11.75;;;7.20;94.00;;;;;;4930303;29;20130;-88
2021/03/04 00:27:42;;;;;;;23.30;11.02;;;7.10;95.90;;;;;;4945229;29;20055;-89
2021/03/04 00:30:15;;;;;;;;;;;7.10;98.00;;;;;;4942703;29;20074;-88
2021/03/04 00:32:44;;;;;;;21.80;10.57;;;6.90;99.10;;;;;;4947557;29;19962;-88
2021/03/04 00:35:11;;;;;;;23.98;11.30;;;6.90;98.30;;;;;;4944433;29;20088;-87
2021/03/04 00:37:38;;;;;;;28.00;11.63;;;6.80;98.10;;;;;;4945310;29;20062;-88
2021/03/04 00:40:10;;;;;;;27.58;11.13;;;6.70;98.30;;;;;;4928705;29;20119;-87
2021/03/04 00:42:37;;;;;;;27.90;11.00;;;6.70;98.10;;;;;;4963155;28;20145;-87
2021/03/04 00:45:12;;;;;;;19.98;10.98;;;6.60;98.90;;;;;;4955021;28;20073;-87
2021/03/04 00:47:50;;;;;;;24.35;11.48;;;6.60;99.80;;;;;;4971192;28;20055;-89
2021/03/04 00:50:19;;;;;;;25.70;12.90;;;6.60;99.90;;;;;;4969897;28;20050;-87
2021/03/04 00:52:46;;;;;;;25.75;11.65;;;6.60;99.90;;;;;;4970192;28;20479;-87
2021/03/04 00:55:14;;;;;;;17.63;10.70;;;6.60;99.90;;;;;;4954199;28;20457;-86
2021/03/04 00:57:43;;;;;;;23.35;11.88;;;6.60;99.90;;;;;;4971498;28;20055;-88
2021/03/04 01:00:11;;;;;;;21.98;12.00;;;6.60;99.90;;;;;;4977624;28;20047;-86
2021/03/04 01:02:37;;;;;;;23.52;11.43;;;6.50;99.90;;;;;;4961306;28;20047;-87
2021/03/04 01:05:07;;;;;;;23.88;12.18;;;6.60;99.90;;;;;;4970483;28;20078;-88
2021/03/04 01:07:36;;;;;;;22.88;12.38;;;6.70;99.90;;;;;;4969302;28;20479;-89
2021/03/04 01:10:08;;;;;;;22.05;11.88;;;6.70;99.90;;;;;;4955487;28;20480;-87
2021/03/04 01:12:38;;;;;;;24.48;12.70;;;6.80;99.90;;;;;;4959589;28;20085;-88
2021/03/04 01:15:17;;;;;;;28.48;13.63;;;6.80;99.90;;;;;;4960985;28;20047;-86
2021/03/04 01:17:43;;;;;;;30.17;16.02;;;6.90;99.90;;;;;;4969381;28;20057;-86
2021/03/04 01:20:15;;;;;;;24.40;14.05;;;7.00;99.90;;;;;;4973815;28;20078;-86
2021/03/04 01:22:43;;;;;;;24.45;14.27;;;7.10;99.90;;;;;;4965757;28;20389;-87
2021/03/04 01:25:10;;;;;;;25.45;14.48;;;7.20;99.90;;;;;;4945917;29;20105;-86
2021/03/04 01:27:40;;;;;;;26.55;14.57;;;7.30;99.90;;;;;;4948438;28;20436;-89
2021/03/04 01:30:09;;;;;;;21.33;13.60;;;7.40;99.30;;;;;;4968621;28;20126;-87
2021/03/04 01:32:37;;;;;;;24.27;14.82;;;7.50;98.20;;;;;;4956470;29;20063;-88
2021/03/04 01:35:06;;;;;;;28.63;15.02;;;7.50;98.30;;;;;;4957690;28;20076;-86
2021/03/04 01:37:42;;;;;;;23.92;14.55;;;7.50;98.10;;;;;;4971089;28;20424;-88
2021/03/04 01:40:12;;;;;;;28.13;14.90;;;7.50;98.50;;;;;;4964760;28;20053;-85
2021/03/04 01:42:39;;;;;;;27.63;14.93;;;7.50;97.60;;;;;;4942692;29;20051;-88
2021/03/04 01:45:08;;;;;;;27.25;15.02;;;7.40;97.60;;;;;;4940434;29;20043;-87
2021/03/04 01:47:40;;;;;;;24.75;14.32;;;7.50;98.30;;;;;;4945563;29;20044;-85
2021/03/04 01:50:08;;;;;;;25.95;14.23;;;7.50;97.70;;;;;;4943447;29;20057;-87
2021/03/04 01:52:37;;;;;;;25.15;15.25;;;7.50;97.40;;;;;;4948220;29;20469;-88
2021/03/04 01:55:04;;;;;;;27.95;13.93;;;7.40;98.70;;;;;;4948131;29;20059;-87
2021/03/04 01:57:40;;;;;;;27.33;16.27;;;7.30;99.90;;;;;;4926247;29;20468;-86
2021/03/04 02:00:08;;;;;;;24.65;15.43;;;7.20;99.90;;;;;;4943385;29;20048;-86
2021/03/04 02:02:38;;;;;;;25.00;14.05;;;7.10;99.90;;;;;;4951019;29;20102;-86
2021/03/04 02:05:15;;;;;;;22.70;14.98;;;6.90;99.90;;;;;;4942273;29;20516;-88
2021/03/04 02:08:02;;;;;;;25.98;14.57;;;6.80;99.90;;;;;;4921198;29;20054;-88
2021/03/04 02:10:48;;;;;;;26.60;15.57;;;6.70;99.90;;;;;;4939609;29;20059;-88
2021/03/04 02:13:40;;;;;;;26.50;15.02;;;6.70;99.90;;;;;;4943392;29;20130;-88
2021/03/04 02:16:14;;;;;;;22.83;14.57;;;6.70;99.90;;;;;;4939675;29;20062;-87
2021/03/04 02:18:46;;;;;;;32.53;15.65;;;6.60;99.90;;;;;;4951426;29;20070;-89
2021/03/04 02:21:27;;;;;;;19.80;11.70;;;6.60;99.90;;;;;;4934496;29;20047;-87
2021/03/04 02:24:29;;;;;;;29.08;16.55;;;6.60;99.90;;;;;;4941689;29;20129;-87
2021/03/04 02:27:08;;;;;;;23.88;14.73;;;6.50;99.90;;;;;;4949193;29;20082;-87
2021/03/04 02:30:05;;;;;;;28.85;15.70;;;6.50;99.90;;;;;;4938978;29;20116;-86
2021/03/04 02:32:37;;;;;;;24.17;15.07;;;6.50;99.90;;;;;;4934364;29;20358;-89
2021/03/04 02:35:12;;;;;;;27.52;15.35;;;6.40;99.90;;;;;;4937084;29;20110;-86
2021/03/04 02:37:43;;;;;;;26.45;13.88;;;6.40;99.90;;;;;;4946384;29;20199;-87
2021/03/04 02:40:12;;;;;;;29.05;14.98;;;6.40;99.90;;;;;;4953981;29;20056;-86
2021/03/04 02:42:40;;;;;;;29.02;15.32;;;6.50;99.90;;;;;;4953892;28;20063;-88
2021/03/04 02:45:10;;;;;;;29.95;14.18;;;6.50;99.90;;;;;;4963737;28;20043;-87
2021/03/04 02:47:40;;;;;;;23.95;14.75;;;6.50;99.90;;;;;;4965470;28;20078;-87
2021/03/04 02:50:08;;;;;;;26.75;15.65;;;6.60;99.90;;;;;;4965404;28;20047;-86
2021/03/04 02:52:39;;;;;;;24.70;14.15;;;6.60;99.90;;;;;;4966184;28;20057;-88
2021/03/04 02:55:07;;;;;;;27.52;13.75;;;6.60;99.90;;;;;;4960506;28;20134;-86
2021/03/04 02:57:40;;;;;;;23.85;12.55;;;6.70;99.90;;;;;;4941342;29;20051;-85
2021/03/04 03:00:11;;;;;;;21.60;13.00;;;6.70;99.90;;;;;;4967447;28;20102;-87
2021/03/04 03:02:42;;;;;;;22.73;13.23;;;6.80;99.90;;;;;;4957588;28;20516;-87
2021/03/04 03:05:11;;;;;;;24.57;12.00;;;6.80;99.90;;;;;;4972306;28;20098;-86
2021/03/04 03:07:43;;;;;;;20.48;12.75;;;6.90;99.90;;;;;;4952843;28;20134;-87
2021/03/04 03:10:15;;;;;;;21.45;12.05;;;6.90;99.90;;;;;;4957252;28;20055;-88
2021/03/04 03:12:44;;;;;;;21.50;12.30;;;6.90;99.90;;;;;;4946502;29;20091;-87
2021/03/04 03:15:14;;;;;;;21.73;11.52;;;6.90;98.90;;;;;;4967593;28;20102;-86
2021/03/04 03:17:44;;;;;;;20.52;11.65;;;6.90;98.20;;;;;;4964235;28;20443;-87
2021/03/04 03:20:15;;;;;;;24.35;11.88;;;6.90;98.40;;;;;;4967410;28;20527;-85
2021/03/04 03:22:47;;;;;;;19.60;12.32;;;6.90;97.60;;;;;;4962636;28;20043;-86
2021/03/04 03:25:14;;;;;;;18.77;11.17;;;6.90;98.80;;;;;;4960448;28;20066;-86
2021/03/04 03:27:43;;;;;;;22.85;12.63;;;7.00;97.40;;;;;;4944061;29;20087;-87
2021/03/04 03:30:16;;;;;;;23.40;12.82;;;7.10;97.00;;;;;;4959276;28;20094;-85
2021/03/04 03:32:54;;;;;;;21.10;12.23;;;7.10;97.30;;;;;;4956235;28;20078;-86
2021/03/04 03:35:21;;;;;;;20.35;12.60;;;7.10;97.80;;;;;;4950356;28;20055;-88
2021/03/04 03:37:49;;;;;;;23.33;12.85;;;7.10;98.70;;;;;;4942846;28;20129;-88
2021/03/04 03:40:18;;;;;;;27.17;12.73;;;7.00;98.30;;;;;;4968816;28;20078;-88
2021/03/04 03:42:45;;;;;;;25.23;13.05;;;7.00;98.60;;;;;;4975604;28;20054;-88
2021/03/04 03:45:24;;;;;;;23.13;12.50;;;7.00;98.00;;;;;;4943982;28;20114;-86
2021/03/04 03:47:51;;;;;;;19.90;11.70;;;7.00;97.80;;;;;;4957953;28;20101;-86
2021/03/04 03:50:27;;;;;;;19.67;11.43;;;7.10;97.50;;;;;;4969398;28;20047;-87
2021/03/04 03:52:55;;;;;;;18.88;11.40;;;7.00;97.10;;;;;;4958579;28;20050;-87
2021/03/04 03:55:24;;;;;;;22.42;11.95;;;7.10;96.60;;;;;;4969831;28;20054;-85
2021/03/04 03:57:55;;;;;;;29.73;14.68;;;7.10;95.90;;;;;;4971281;28;20043;-86
2021/03/04 04:00:25;;;;;;;36.63;15.40;;;7.10;96.00;;;;;;4963685;28;20047;-87
2021/03/04 04:02:59;;;;;;;31.42;15.77;;;7.10;96.00;;;;;;4949866;28;20038;-86
2021/03/04 04:05:27;;;;;;;34.17;16.55;;;7.10;95.30;;;;;;4972949;28;20467;-86
2021/03/04 04:07:55;;;;;;;29.83;14.57;;;7.10;95.40;;;;;;4961471;28;20047;-86
2021/03/04 04:10:27;;;;;;;27.80;13.30;;;7.10;94.80;;;;;;4964973;28;20047;-86
2021/03/04 04:12:54;;;;;;;31.63;14.63;;;7.10;94.50;;;;;;4971197;28;20134;-86
2021/03/04 04:15:22;;;;;;;31.58;14.55;;;7.10;94.80;;;;;;4966026;28;20046;-87
2021/03/04 04:17:58;;;;;;;32.95;15.68;;;7.10;95.00;;;;;;4967181;28;20055;-86
2021/03/04 04:20:48;;;;;;;25.25;13.75;;;7.10;94.80;;;;;;4964732;28;20043;-86
2021/03/04 04:23:15;;;;;;;24.50;13.18;;;7.10;94.30;;;;;;4977425;28;20154;-87
2021/03/04 04:25:54;;;;;;;27.23;13.30;;;7.10;94.40;;;;;;4972258;28;20440;-86
2021/03/04 04:28:26;;;;;;;26.45;13.38;;;7.00;95.60;;;;;;4972729;28;20073;-86
2021/03/04 04:30:53;;;;;;;18.60;12.10;;;7.00;95.50;;;;;;4967806;28;20097;-87
2021/03/04 04:33:19;;;;;;;20.77;11.90;;;7.00;95.50;;;;;;4962291;28;20425;-86
2021/03/04 04:35:48;;;;;;;24.65;12.20;;;6.90;96.70;;;;;;4970627;28;20055;-87
2021/03/04 04:38:18;;;;;;;19.30;10.57;;;6.90;96.70;;;;;;4972834;28;20043;-86
2021/03/04 04:40:47;;;;;;;21.80;11.20;;;6.90;95.20;;;;;;4973121;28;20082;-87
2021/03/04 04:43:14;;;;;;;21.92;11.98;;;6.90;96.50;;;;;;4956107;29;20081;-85
2021/03/04 04:45:43;;;;;;;20.85;11.20;;;6.80;95.60;;;;;;4956401;29;20082;-86
2021/03/04 04:48:10;;;;;;;25.13;11.70;;;6.80;96.00;;;;;;4940869;29;20488;-86
2021/03/04 04:50:37;;;;;;;20.98;11.23;;;6.70;95.80;;;;;;4939596;29;20118;-86
2021/03/04 04:53:08;;;;;;;23.67;11.55;;;6.70;95.60;;;;;;4940852;29;20043;-87
2021/03/04 04:55:37;;;;;;;19.95;10.98;;;6.60;96.40;;;;;;4955921;29;20134;-87
2021/03/04 04:58:06;;;;;;;18.88;12.18;;;6.50;96.90;;;;;;4957236;29;20043;-87
2021/03/04 05:00:41;;;;;;;23.60;11.40;;;6.50;97.80;;;;;;4941575;29;20079;-86
2021/03/04 05:03:07;;;;;;;18.95;10.55;;;6.50;97.00;;;;;;4956850;29;20043;-87
2021/03/04 05:05:37;;;;;;;21.20;10.80;;;6.50;96.40;;;;;;4956344;29;20070;-88
2021/03/04 05:08:06;;;;;;;;;;;6.50;96.20;;;;;;4956757;29;20057;-87
2021/03/04 05:10:39;;;;;;;19.65;10.40;;;6.50;97.40;;;;;;4939563;29;19989;-86
2021/03/04 05:13:05;;;;;;;22.45;11.30;;;6.50;98.00;;;;;;4938478;29;20488;-87
2021/03/04 05:15:39;;;;;;;22.25;11.35;;;6.50;99.10;;;;;;4958214;28;20051;-87
2021/03/04 05:18:06;;;;;;;24.75;12.02;;;6.50;99.80;;;;;;4959894;28;20354;-86
2021/03/04 05:20:36;;;;;;;26.13;12.00;;;6.50;99.60;;;;;;4955676;29;20381;-88
2021/03/04 05:23:02;;;;;;;24.00;13.32;;;6.50;98.40;;;;;;4939521;29;20134;-87
2021/03/04 05:25:29;;;;;;;25.55;11.88;;;6.50;99.60;;;;;;4956221;29;20543;-87
2021/03/04 05:27:56;;;;;;;26.08;13.00;;;6.50;99.90;;;;;;4939595;29;20059;-87
2021/03/04 05:30:24;;;;;;;23.58;13.02;;;6.50;99.90;;;;;;4939572;29;20085;-89
2021/03/04 05:32:50;;;;;;;23.73;13.52;;;6.50;99.90;;;;;;4939518;29;20114;-88
2021/03/04 05:35:19;;;;;;;22.05;12.93;;;6.50;99.90;;;;;;4957409;29;20081;-92
2021/03/04 05:37:47;;;;;;;29.13;13.55;;;6.40;99.90;;;;;;4941996;29;20150;-90
2021/03/04 05:40:14;;;;;;;22.92;13.38;;;6.40;99.90;;;;;;4957424;29;20045;-90
2021/03/04 05:42:42;;;;;;;21.38;13.77;;;6.30;99.90;;;;;;4957133;29;20109;-90
2021/03/04 05:45:14;;;;;;;25.10;14.05;;;6.30;99.90;;;;;;4956057;29;20522;-88
2021/03/04 05:47:48;;;;;;;26.52;14.10;;;6.30;99.90;;;;;;4946615;29;20424;-87
2021/03/04 05:50:17;;;;;;;20.42;12.60;;;6.30;99.90;;;;;;4922482;29;20110;-86
2021/03/04 05:52:53;;;;;;;25.45;13.30;;;6.40;99.90;;;;;;4955019;29;20102;-86
2021/03/04 05:55:23;;;;;;;27.80;14.18;;;6.40;99.90;;;;;;4954691;29;20358;-86
2021/03/04 05:57:52;;;;;;;21.63;12.75;;;6.40;99.90;;;;;;4938707;29;20384;-86
2021/03/04 06:00:19;;;;;;;26.20;13.50;;;6.40;99.90;;;;;;4954402;28;20150;-87
2021/03/04 06:02:47;;;;;;;28.50;15.10;;;6.40;99.90;;;;;;4955177;29;20051;-88
2021/03/04 06:05:15;;;;;;;29.80;14.55;;;6.40;99.90;;;;;;4958637;29;20115;-88
2021/03/04 06:07:45;;;;;;;23.23;13.48;;;6.40;99.90;;;;;;4958902;29;20051;-90
2021/03/04 06:10:15;;;;;;;21.00;13.15;;;6.40;99.90;;;;;;4940176;29;20062;-91
2021/03/04 06:12:44;;;;;;;25.13;13.15;;;6.40;99.90;;;;;;4957001;29;20047;-87
2021/03/04 06:15:11;;;;;;;23.65;12.68;;;6.40;99.90;;;;;;4956796;29;20079;-91
2021/03/04 06:17:38;;;;;;;23.20;12.00;;;6.50;99.90;;;;;;4958967;29;20073;-90
2021/03/04 06:20:10;;;;;;;23.73;12.70;;;6.50;99.90;;;;;;4957185;29;20058;-89
2021/03/04 06:22:38;;;;;;;21.13;12.30;;;6.50;99.90;;;;;;4957987;29;20117;-92
2021/03/04 06:25:12;;;;;;;25.35;12.00;;;6.50;99.90;;;;;;4941225;29;20476;-93
2021/03/04 06:27:46;;;;;;;21.27;12.02;;;6.50;99.90;;;;;;4932119;29;20062;-91
2021/03/04 06:30:16;;;;;;;23.05;12.25;;;6.50;99.90;;;;;;4957605;29;21868;-89
2021/03/04 06:33:00;;;;;;;22.27;12.68;;;6.50;99.90;;;;;;4950907;29;20047;-88
2021/03/04 06:35:43;;;;;;;24.65;12.73;;;6.50;99.90;;;;;;4955544;29;20070;-89
2021/03/04 06:38:20;;;;;;;24.90;12.45;;;6.50;99.90;;;;;;4954680;28;20043;-87
2021/03/04 06:40:52;;;;;;;22.40;11.48;;;6.50;99.90;;;;;;4956316;29;20461;-85
2021/03/04 06:43:21;;;;;;;23.75;13.13;;;6.50;99.90;;;;;;4955497;29;20051;-87
2021/03/04 06:45:48;;;;;;;27.15;14.40;;;6.40;99.90;;;;;;4939474;29;20051;-88
2021/03/04 06:48:24;;;;;;;24.88;12.98;;;6.40;99.90;;;;;;4933128;29;20051;-85
2021/03/04 06:51:03;;;;;;;23.58;13.48;;;6.40;99.90;;;;;;4930584;28;20054;-84
2021/03/04 06:53:52;;;;;;;26.75;13.85;;;6.40;99.90;;;;;;4956285;28;20606;-83
2021/03/04 06:56:29;;;;;;;24.77;13.57;;;6.40;99.90;;;;;;4947557;29;20059;-82
2021/03/04 06:59:29;;;;;;;;;;;;;;;;;;;;;
2021/03/04 07:05:20;;;;;;;28.33;12.90;;;6.70;99.90;;;;;;4964958;28;20055;-89
2021/03/04 07:07:55;;;;;;;28.15;14.25;;;6.90;99.90;;;;;;4936191;29;20031;-86
2021/03/04 07:10:45;;;;;;;32.25;13.95;;;7.10;99.90;;;;;;4952443;28;20385;-82
2021/03/04 07:13:12;;;;;;;25.40;13.15;;;7.30;99.90;;;;;;4937072;29;20043;-82
2021/03/04 07:15:45;;;;;;;28.40;13.68;;;7.50;98.10;;;;;;4955254;29;20183;-81
2021/03/04 07:18:14;;;;;;;26.92;14.13;;;7.70;96.60;;;;;;4942317;29;20142;-84
2021/03/04 07:20:45;;;;;;;19.63;12.48;;;7.80;95.60;;;;;;4948496;29;20079;-80
2021/03/04 07:23:12;;;;;;;26.10;13.35;;;7.90;95.00;;;;;;4937181;29;20380;-83
2021/03/04 07:25:45;;;;;;;27.00;13.35;;;8.10;94.20;;;;;;4953838;28;20078;-82
2021/03/04 07:28:15;;;;;;;25.08;13.23;;;8.40;92.10;;;;;;4955902;29;20044;-83
2021/03/04 07:30:49;;;;;;;24.17;13.43;;;8.50;90.40;;;;;;4956462;29;20047;-88
2021/03/04 07:33:19;;;;;;;22.20;13.00;;;8.80;90.30;;;;;;4947895;29;20070;-89
2021/03/04 07:35:52;;;;;;;27.67;13.60;;;8.90;89.00;;;;;;4925664;29;20047;-87
2021/03/04 07:38:29;;;;;;;23.23;12.93;;;9.10;86.50;;;;;;4958438;29;20065;-88
2021/03/04 07:41:15;;;;;;;23.63;13.88;;;9.20;85.20;;;;;;4957842;28;20062;-88
2021/03/04 07:43:51;;;;;;;26.13;12.30;;;9.20;82.50;;;;;;4968778;28;20051;-89
2021/03/04 07:46:27;;;;;;;21.60;11.30;;;9.40;82.10;;;;;;4984218;28;20118;-87
2021/03/04 07:48:56;;;;;;;23.55;11.60;;;9.60;79.20;;;;;;4966976;28;20054;-88
2021/03/04 07:51:25;;;;;;;19.17;11.50;;;9.80;77.30;;;;;;4972414;28;20054;-86
2021/03/04 07:53:53;;;;;;;21.52;11.07;;;10.00;75.90;;;;;;4966121;28;20113;-87
2021/03/04 07:56:29;;;;;;;22.38;10.45;;;10.20;74.20;;;;;;4976048;28;20046;-88
2021/03/04 07:59:15;;;;;;;24.08;10.70;;;10.30;73.40;;;;;;4945173;28;20070;-88
2021/03/04 08:01:56;;;;;;;22.65;11.68;;;10.30;72.60;;;;;;4986239;28;20134;-88
2021/03/04 08:04:26;;;;;;;17.83;10.07;;;10.40;71.90;;;;;;4975647;28;20078;-87
2021/03/04 08:07:00;;;;;;;14.30;9.32;;;10.40;70.40;;;;;;4957585;28;20798;-87
2021/03/04 08:09:31;;;;;;;20.45;9.73;;;10.30;69.10;;;;;;4958426;28;20074;-87
2021/03/04 08:12:14;;;;;;;21.35;9.85;;;10.50;67.40;;;;;;4975099;28;20042;-89
2021/03/04 08:14:54;;;;;;;;;;;11.00;66.10;;;;;;4974204;28;20055;-88
2021/03/04 08:17:21;;;;;;;30.98;10.38;;;11.40;64.20;;;;;;4977478;28;19940;-88
2021/03/04 08:19:53;;;;;;;24.48;9.75;;;11.90;62.80;;;;;;4975415;28;20074;-89
2021/03/04 08:22:21;;;;;;;20.63;9.40;;;12.30;60.00;;;;;;4975023;28;20043;-88
2021/03/04 08:24:50;;;;;;;19.25;9.27;;;12.60;59.10;;;;;;4977386;28;20150;-88
2021/03/04 08:27:20;;;;;;;14.23;8.53;;;12.40;58.50;;;;;;4976386;28;20397;-88
2021/03/04 08:29:50;;;;;;;19.73;9.32;;;12.60;57.40;;;;;;4973668;28;20388;-88
2021/03/04 08:32:17;;;;;;;24.23;9.10;;;13.10;57.60;;;;;;4976161;28;20046;-89
2021/03/04 08:34:44;;;;;;;20.48;9.40;;;13.30;55.40;;;;;;4975526;28;20070;-87
2021/03/04 08:37:27;;;;;;;18.30;9.27;;;13.40;54.80;;;;;;4976882;28;20052;-87
2021/03/04 08:40:01;;;;;;;22.08;9.90;;;13.40;54.20;;;;;;4975166;28;20057;-89
2021/03/04 08:42:31;;;;;;;23.40;9.43;;;12.90;54.70;;;;;;4952495;28;20062;-87
2021/03/04 08:44:59;;;;;;;19.98;9.10;;;13.00;55.10;;;;;;4987640;28;20071;-87
2021/03/04 08:47:26;;;;;;;15.20;8.85;;;13.30;55.00;;;;;;4977271;28;20070;-87
2021/03/04 08:50:00;;;;;;;19.73;9.10;;;12.80;55.30;;;;;;4956981;28;20162;-86
2021/03/04 08:52:28;;;;;;;18.90;9.40;;;12.80;55.60;;;;;;4974816;28;20333;-87
2021/03/04 08:55:00;;;;;;;20.55;9.43;;;12.90;55.40;;;;;;4979229;28;20089;-85
2021/03/04 08:57:28;;;;;;;23.20;8.82;;;13.30;55.10;;;;;;4978703;28;20053;-87
2021/03/04 09:00:22;;;;;;;16.27;8.77;;;13.90;53.10;;;;;;4959331;28;20385;-87
2021/03/04 09:03:10;;;;;;;21.48;9.93;;;14.20;51.90;;;;;;4968310;28;20528;-86
2021/03/04 09:05:46;;;;;;;17.15;9.88;;;14.30;51.90;;;;;;4976717;28;20061;-87
2021/03/04 09:08:14;;;;;;;17.98;9.60;;;14.30;52.00;;;;;;4970317;28;20085;-88
2021/03/04 09:10:51;;;;;;;23.40;9.10;;;14.40;51.90;;;;;;4971580;28;20050;-89
2021/03/04 09:13:22;;;;;;;24.13;10.02;;;14.10;51.40;;;;;;4966658;28;20078;-85
2021/03/04 09:15:56;;;;;;;21.98;9.80;;;13.70;53.20;;;;;;4976728;28;20099;-86
2021/03/04 09:18:26;;;;;;;24.02;9.32;;;13.80;53.00;;;;;;4976196;28;20133;-88
2021/03/04 09:20:54;;;;;;;18.80;9.13;;;14.10;52.60;;;;;;4960195;28;20376;-86
2021/03/04 09:23:21;;;;;;;18.38;9.23;;;14.40;52.60;;;;;;4978330;28;20035;-88
2021/03/04 09:25:56;;;;;;;22.00;9.98;;;14.90;51.80;;;;;;4966469;28;20133;-88
2021/03/04 09:28:26;;;;;;;26.00;9.95;;;15.70;50.50;;;;;;4974856;28;20054;-88
2021/03/04 09:31:15;;;;;;;19.42;9.18;;;15.90;49.30;;;;;;4993742;28;20047;-86
2021/03/04 09:33:55;;;;;;;18.83;9.48;;;16.00;50.00;;;;;;4998404;28;20085;-87
2021/03/04 09:36:24;;;;;;;15.38;9.18;;;16.20;49.50;;;;;;4997658;28;20086;-88
2021/03/04 09:38:53;;;;;;;19.45;9.27;;;17.20;47.70;;;;;;4994890;28;20050;-89
2021/03/04 09:41:31;;;;;;;16.48;8.60;;;17.60;46.50;;;;;;4986879;28;20055;-88
2021/03/04 09:44:07;;;;;;;18.58;9.18;;;18.30;45.20;;;;;;4975986;28;20137;-88
2021/03/04 09:46:41;;;;;;;20.35;8.75;;;19.00;43.80;;;;;;4970060;28;20043;-89
2021/03/04 09:49:15;;;;;;;20.55;8.80;;;19.50;42.00;;;;;;4971305;28;20053;-89
2021/03/04 09:51:46;;;;;;;18.75;7.63;;;19.40;42.00;;;;;;4961818;28;20047;-88
2021/03/04 09:54:27;;;;;;;18.30;7.78;;;19.10;42.80;;;;;;4971022;28;20043;-88
2021/03/04 09:57:04;;;;;;;20.08;7.88;;;18.70;42.90;;;;;;4970622;28;20066;-87
2021/03/04 09:59:31;;;;;;;19.48;8.15;;;19.00;43.20;;;;;;4965543;28;20043;-87
2021/03/04 10:01:58;;;;;;;12.75;8.00;;;19.90;41.30;;;;;;4961979;28;20047;-87
2021/03/04 10:04:28;;;;;;;18.58;8.15;;;20.50;39.90;;;;;;4968607;28;20047;-90
2021/03/04 10:06:59;;;;;;;22.90;8.85;;;20.40;39.70;;;;;;4970180;28;20059;-89
2021/03/04 10:09:27;;;;;;;16.77;7.55;;;20.00;40.00;;;;;;4950250;28;20447;-89
2021/03/04 10:12:00;;;;;;;18.92;8.13;;;19.70;40.20;;;;;;4956882;28;20043;-87
2021/03/04 10:14:27;;;;;;;22.05;8.52;;;19.80;40.60;;;;;;4971298;28;20115;-88
2021/03/04 10:16:55;;;;;;;23.13;8.30;;;19.70;40.80;;;;;;4973597;28;20038;-88
2021/03/04 10:19:23;;;;;;;21.95;9.18;;;19.40;42.10;;;;;;4942964;28;20058;-88
2021/03/04 10:21:50;;;;;;;23.60;8.52;;;19.80;42.00;;;;;;4968648;28;20145;-89
2021/03/04 10:24:18;;;;;;;25.63;9.50;;;20.50;40.80;;;;;;4972580;28;20043;-88
2021/03/04 10:26:49;;;;;;;24.65;8.82;;;20.80;39.80;;;;;;4970303;28;20125;-88
2021/03/04 10:29:16;;;;;;;23.35;8.68;;;21.40;39.50;;;;;;4946786;28;20115;-88
2021/03/04 10:31:46;;;;;;;19.20;8.48;;;21.40;38.70;;;;;;4954380;28;20353;-89
2021/03/04 10:34:15;;;;;;;26.48;9.13;;;21.20;38.50;;;;;;4966823;28;20058;-89
2021/03/04 10:36:41;;;;;;;17.55;8.77;;;19.90;40.50;;;;;;4955249;28;20153;-88
2021/03/04 10:39:08;;;;;;;22.48;8.70;;;19.70;41.90;;;;;;4973115;28;20042;-88
2021/03/04 10:41:36;;;;;;;23.67;8.65;;;19.50;41.50;;;;;;4973423;28;20050;-87
2021/03/04 10:44:12;;;;;;;20.77;8.40;;;19.60;42.50;;;;;;4976282;28;20485;-85
2021/03/04 10:46:50;;;;;;;17.92;8.93;;;20.50;40.20;;;;;;4959382;28;20078;-89
2021/03/04 10:49:19;;;;;;;28.65;9.38;;;20.60;39.60;;;;;;4951702;28;20066;-88
2021/03/04 10:51:49;;;;;;;17.88;8.68;;;20.70;39.60;;;;;;4970273;28;20058;-89
2021/03/04 10:54:16;;;;;;;20.55;8.65;;;20.90;39.30;;;;;;4946402;28;20436;-88
2021/03/04 10:56:48;;;;;;;22.90;8.77;;;21.20;38.30;;;;;;4959657;28;20051;-89
2021/03/04 10:59:15;;;;;;;19.70;8.27;;;21.00;38.50;;;;;;4978043;28;20042;-91
2021/03/04 11:01:48;;;;;;;21.45;9.60;;;20.90;39.10;;;;;;4959630;28;20047;-88
2021/03/04 11:04:22;;;;;;;17.10;8.02;;;20.60;39.20;;;;;;4970602;28;20463;-90
2021/03/04 11:06:49;;;;;;;18.73;8.88;;;21.20;38.90;;;;;;4952213;29;20047;-91
2021/03/04 11:09:17;;;;;;;23.88;8.88;;;20.40;38.70;;;;;;4956862;28;20051;-90
2021/03/04 11:11:50;;;;;;;19.67;8.73;;;19.90;39.90;;;;;;4978541;28;20077;-90
2021/03/04 11:14:17;;;;;;;24.30;9.30;;;20.00;40.70;;;;;;4980140;28;20113;-90
2021/03/04 11:16:50;;;;;;;25.73;9.27;;;19.50;41.20;;;;;;4977300;28;20043;-89
2021/03/04 11:19:17;;;;;;;22.67;9.50;;;19.50;41.60;;;;;;4969332;28;20043;-88
2021/03/04 11:21:47;;;;;;;15.80;8.13;;;19.90;41.10;;;;;;4973651;28;20074;-90
2021/03/04 11:24:14;;;;;;;20.33;8.63;;;20.50;40.40;;;;;;4956463;28;20385;-91
2021/03/04 11:26:43;;;;;;;20.13;9.13;;;20.60;39.30;;;;;;4977290;28;20047;-90
2021/03/04 11:29:11;;;;;;;22.17;9.05;;;20.00;39.40;;;;;;4982796;28;20066;-89
2021/03/04 11:31:47;;;;;;;20.48;9.10;;;19.60;40.80;;;;;;4984958;28;20404;-89
2021/03/04 11:34:14;;;;;;;20.88;9.25;;;19.40;41.60;;;;;;4982442;28;20047;-89
2021/03/04 11:36:50;;;;;;;23.30;9.43;;;19.10;41.50;;;;;;4972340;28;20203;-92
2021/03/04 11:39:21;;;;;;;20.58;8.65;;;18.30;43.00;;;;;;4977154;28;20487;-92
2021/03/04 11:41:49;;;;;;;21.75;9.35;;;18.20;43.80;;;;;;4949155;28;20477;-90
2021/03/04 11:44:31;;;;;;;22.70;9.48;;;17.70;44.40;;;;;;4957636;29;20150;-90
2021/03/04 11:46:58;;;;;;;21.10;9.35;;;17.70;45.40;;;;;;4956179;29;20065;-91
2021/03/04 11:49:52;;;;;;;23.13;9.07;;;18.40;44.60;;;;;;4939374;29;20165;-92
2021/03/04 11:52:20;;;;;;;21.52;9.55;;;19.30;44.40;;;;;;4935694;29;20127;-90
2021/03/04 11:54:47;;;;;;;22.50;8.68;;;19.60;40.50;;;;;;4956640;29;20464;-90
2021/03/04 11:57:13;;;;;;;28.65;9.15;;;19.50;42.00;;;;;;4939658;29;20044;-88
2021/03/04 11:59:52;;;;;;;20.85;8.90;;;19.90;40.90;;;;;;4955554;28;20069;-92
2021/03/04 12:02:19;;;;;;;20.00;9.38;;;19.80;40.40;;;;;;4916047;29;20126;-89
2021/03/04 12:04:52;;;;;;;22.42;9.27;;;19.60;40.70;;;;;;4947251;29;20055;-90
2021/03/04 12:07:23;;;;;;;19.20;8.57;;;20.00;39.70;;;;;;4955089;29;20051;-89
2021/03/04 12:10:16;;;;;;;26.17;10.00;;;20.20;39.60;;;;;;4953093;29;20058;-92
2021/03/04 12:12:47;;;;;;;20.98;9.23;;;19.10;41.00;;;;;;4956855;29;20122;-88
2021/03/04 12:15:17;;;;;;;19.48;9.00;;;18.80;42.50;;;;;;4923121;29;20063;-88
2021/03/04 12:18:03;;;;;;;24.63;9.85;;;19.40;41.70;;;;;;4938029;29;20397;-91
2021/03/04 12:20:48;;;;;;;17.05;8.75;;;18.90;41.70;;;;;;4948275;29;20193;-89
2021/03/04 12:23:17;;;;;;;23.38;10.07;;;18.90;42.20;;;;;;4964848;29;20062;-91
2021/03/04 12:25:48;;;;;;;22.70;10.18;;;18.30;43.70;;;;;;4933629;29;20048;-87
2021/03/04 12:28:18;;;;;;;28.25;9.68;;;17.70;45.00;;;;;;4957201;28;20045;-89
2021/03/04 12:30:47;;;;;;;22.50;10.52;;;17.60;45.50;;;;;;4979346;28;20047;-91
2021/03/04 12:33:14;;;;;;;18.27;9.35;;;17.20;45.50;;;;;;4978652;28;20039;-89
2021/03/04 12:35:41;;;;;;;25.13;9.40;;;17.20;46.00;;;;;;4979498;28;20042;-92
2021/03/04 12:38:09;;;;;;;22.02;9.57;;;17.50;45.80;;;;;;4990550;23;20094;-86
2021/03/04 12:41:01;;;;;;;26.27;10.02;;;18.00;45.10;;;;;;4970478;29;20102;-91
2021/03/04 12:43:28;;;;;;;25.40;9.77;;;18.30;44.40;;;;;;4954029;29;20055;-89
2021/03/04 12:45:55;;;;;;;22.48;9.55;;;18.20;43.90;;;;;;4947466;29;20052;-92
2021/03/04 12:48:28;;;;;;;30.00;9.18;;;18.20;44.30;;;;;;4935961;29;20145;-89
2021/03/04 12:51:01;;;;;;;19.48;9.18;;;17.90;44.70;;;;;;4941440;29;20055;-91
2021/03/04 12:53:30;;;;;;;19.90;9.15;;;17.30;45.20;;;;;;4957815;29;20078;-90
2021/03/04 12:56:11;;;;;;;17.40;8.77;;;17.10;46.10;;;;;;4937186;29;20055;-89
2021/03/04 12:58:38;;;;;;;19.95;8.77;;;17.70;46.00;;;;;;4952274;29;20048;-90
2021/03/04 13:01:08;;;;;;;23.05;9.35;;;18.50;43.90;;;;;;4941947;29;20110;-90
2021/03/04 13:03:46;;;;;;;26.00;9.73;;;18.70;43.80;;;;;;4942934;29;20066;-92